Time;durP1;ratioP1;P1;durP2;ratioP2;P2;SDS_P1;SDS_P2;PMS_P1;PMS_P2;Temp;Humidity;BMP_temperature;BMP_pressure;BME280_temperature;BME280_humidity;BME280_pressure;Samples;Min_cycle;Max_cycle;Signal;HPM_P1;HPM_P2
2023/05/23 00:01:31;;;;;;;20.40;17.63;;;;;;;18.20;100.00;95995.22;6169215;23;20032;-91
2023/05/23 00:03:57;;;;;;;20.77;17.07;;;;;;;17.85;100.00;95999.06;6168929;23;20052;-91
2023/05/23 00:06:23;;;;;;;18.85;16.85;;;;;;;17.89;100.00;95996.78;6169585;23;20055;-90
2023/05/23 00:08:53;;;;;;;20.07;17.00;;;;;;;17.95;100.00;95997.78;6167735;23;20005;-89
2023/05/23 00:11:22;;;;;;;22.48;16.25;;;;;;;17.82;100.00;96002.13;6168776;23;20009;-90
2023/05/23 00:13:50;;;;;;;22.02;16.65;;;;;;;17.66;100.00;96007.88;6169184;23;20013;-89
2023/05/23 00:16:16;;;;;;;23.10;18.27;;;;;;;17.75;100.00;96003.97;6169195;23;20452;-89
2023/05/23 00:18:41;;;;;;;20.55;17.67;;;;;;;17.65;100.00;96004.41;6168723;23;20005;-89
2023/05/23 00:21:08;;;;;;;23.83;17.60;;;;;;;17.68;100.00;96011.16;6169592;23;20001;-89
2023/05/23 00:23:34;;;;;;;18.60;16.30;;;;;;;17.70;100.00;96010.94;6169094;23;20005;-89
2023/05/23 00:26:00;;;;;;;20.50;18.00;;;;;;;17.41;100.00;96013.88;6168470;23;20087;-89
2023/05/23 00:28:26;;;;;;;19.17;16.67;;;;;;;17.53;100.00;96005.25;6168337;23;20005;-88
2023/05/23 00:30:51;;;;;;;20.90;18.05;;;;;;;17.58;100.00;96010.78;6165775;23;20067;-89
2023/05/23 00:33:20;;;;;;;23.73;17.30;;;;;;;17.40;100.00;96012.25;6164484;23;20009;-89
2023/05/23 00:35:48;;;;;;;19.10;17.02;;;;;;;17.38;100.00;96010.81;6161799;23;20429;-89
2023/05/23 00:38:14;;;;;;;19.73;16.90;;;;;;;17.40;100.00;96016.72;6165453;23;20023;-89
2023/05/23 00:40:40;;;;;;;20.37;17.43;;;;;;;17.25;100.00;96013.50;6170717;23;20445;-89
2023/05/23 00:43:07;;;;;;;20.40;17.57;;;;;;;17.43;100.00;96008.34;6166948;23;20001;-90
2023/05/23 00:45:32;;;;;;;19.40;16.40;;;;;;;17.55;100.00;96012.00;6174914;23;20005;-90
2023/05/23 00:47:59;;;;;;;19.80;17.47;;;;;;;17.76;100.00;96007.44;6166713;23;20063;-89
2023/05/23 00:50:29;;;;;;;19.80;17.70;;;;;;;17.67;100.00;96004.19;6166765;23;20040;-89
2023/05/23 00:52:57;;;;;;;25.03;18.33;;;;;;;17.41;100.00;96005.91;6165286;23;20008;-89
2023/05/23 00:55:24;;;;;;;22.20;18.87;;;;;;;17.24;100.00;96006.56;6165280;23;20001;-89
2023/05/23 00:57:57;;;;;;;20.45;17.30;;;;;;;17.15;100.00;96009.41;6165209;23;20004;-89
2023/05/23 01:00:24;;;;;;;22.77;20.23;;;;;;;17.10;100.00;96011.88;6164457;23;20099;-89
2023/05/23 01:02:50;;;;;;;22.30;18.77;;;;;;;17.06;100.00;96015.94;6164437;23;20001;-89
2023/05/23 01:05:17;;;;;;;28.77;19.47;;;;;;;17.05;100.00;96009.00;6165096;23;20108;-89
2023/05/23 01:07:47;;;;;;;21.40;18.87;;;;;;;17.14;100.00;96010.44;6165046;23;20028;-89
2023/05/23 01:10:22;;;;;;;23.43;20.27;;;;;;;17.08;100.00;96019.22;6165808;23;20100;-89
2023/05/23 01:13:25;;;;;;;24.50;20.00;;;;;;;16.86;100.00;96020.44;6164943;23;20008;-89
2023/05/23 01:16:18;;;;;;;23.60;19.57;;;;;;;16.82;100.00;96021.88;6190278;23;20103;-90
2023/05/23 01:18:56;;;;;;;21.67;18.85;;;;;;;16.79;100.00;96022.28;6165337;23;20005;-89
2023/05/23 01:21:24;;;;;;;23.00;19.90;;;;;;;16.87;100.00;96016.78;6165979;23;20488;-89
2023/05/23 01:24:02;;;;;;;24.37;20.67;;;;;;;16.85;100.00;96016.97;6166928;23;20005;-89
2023/05/23 01:26:47;;;;;;;22.60;19.27;;;;;;;16.73;100.00;96022.06;6166322;23;20008;-89
2023/05/23 01:29:24;;;;;;;24.33;20.53;;;;;;;16.63;100.00;96018.13;6166675;23;20005;-89
2023/05/23 01:31:52;;;;;;;25.93;21.47;;;;;;;16.66;100.00;96015.88;6165976;23;20380;-88
2023/05/23 01:34:18;;;;;;;26.40;19.67;;;;;;;16.73;100.00;96022.06;6164835;23;20070;-89
2023/05/23 01:36:44;;;;;;;23.63;21.07;;;;;;;16.69;100.00;96023.44;6165974;23;20009;-89
2023/05/23 01:39:11;;;;;;;24.43;20.47;;;;;;;16.76;100.00;96028.00;6164939;23;20004;-89
2023/05/23 01:41:37;;;;;;;25.43;21.43;;;;;;;16.67;100.00;96025.50;6166075;23;20428;-89
2023/05/23 01:44:04;;;;;;;25.87;21.17;;;;;;;16.60;100.00;96021.19;6165849;23;20031;-89
2023/05/23 01:46:31;;;;;;;27.10;21.53;;;;;;;16.55;100.00;96024.47;6165606;23;20001;-89
2023/05/23 01:48:58;;;;;;;27.73;22.67;;;;;;;16.55;100.00;96031.59;6161077;23;20426;-88
2023/05/23 01:51:25;;;;;;;28.27;21.20;;;;;;;16.64;100.00;96039.19;6161138;23;20005;-89
2023/05/23 01:53:52;;;;;;;26.40;21.43;;;;;;;16.67;100.00;96032.66;6164272;23;20001;-89
2023/05/23 01:56:20;;;;;;;26.33;21.90;;;;;;;16.61;100.00;96034.28;6174309;23;20036;-89
2023/05/23 01:58:46;;;;;;;27.50;22.00;;;;;;;16.63;100.00;96037.56;6172646;23;20009;-89
2023/05/23 02:01:12;;;;;;;28.57;22.80;;;;;;;16.52;100.00;96035.47;6161179;23;20004;-89
2023/05/23 02:03:38;;;;;;;25.53;22.80;;;;;;;16.62;100.00;96043.88;6161138;23;20016;-89
2023/05/23 02:06:04;;;;;;;26.60;21.90;;;;;;;16.81;100.00;96039.66;6162561;23;20008;-89
2023/05/23 02:08:29;;;;;;;29.50;24.23;;;;;;;16.54;100.00;96044.06;6161915;23;20084;-90
2023/05/23 02:10:55;;;;;;;30.17;24.50;;;;;;;16.47;100.00;96046.72;6160947;23;20334;-88
2023/05/23 02:13:21;;;;;;;34.43;25.97;;;;;;;16.52;100.00;96043.44;6160659;23;20005;-89
2023/05/23 02:15:46;;;;;;;29.47;24.73;;;;;;;16.56;100.00;96042.00;6185339;23;20007;-89
2023/05/23 02:18:12;;;;;;;35.73;25.17;;;;;;;16.54;100.00;96044.06;6160346;23;20063;-89
2023/05/23 02:20:41;;;;;;;33.67;26.60;;;;;;;16.58;100.00;96045.28;6162169;23;20051;-88
2023/05/23 02:23:08;;;;;;;31.93;25.87;;;;;;;16.57;100.00;96043.66;6162255;23;20112;-88
2023/05/23 02:25:36;;;;;;;33.17;26.23;;;;;;;16.35;100.00;96043.00;6161976;23;20001;-88
2023/05/23 02:28:05;;;;;;;37.80;26.07;;;;;;;16.20;100.00;96047.66;6161648;23;20135;-89
2023/05/23 02:30:31;;;;;;;33.70;26.53;;;;;;;16.38;100.00;96044.44;6161538;23;20380;-89
2023/05/23 02:32:57;;;;;;;32.57;26.40;;;;;;;16.23;100.00;96048.06;6160695;23;20005;-89
2023/05/23 02:35:23;;;;;;;33.60;27.10;;;;;;;16.17;100.00;96054.16;6161478;23;20459;-89
2023/05/23 02:37:49;;;;;;;33.97;27.73;;;;;;;16.19;100.00;96046.81;6161775;23;20037;-89
2023/05/23 02:40:15;;;;;;;35.03;28.13;;;;;;;16.09;100.00;96043.72;6160433;23;20012;-89
2023/05/23 02:42:40;;;;;;;37.77;29.67;;;;;;;16.18;100.00;96045.19;6159943;23;20056;-88
2023/05/23 02:45:06;;;;;;;38.00;29.73;;;;;;;16.17;100.00;96051.50;6160867;23;20016;-88
2023/05/23 02:47:33;;;;;;;41.77;30.13;;;;;;;16.23;100.00;96050.72;6160058;23;20004;-90
2023/05/23 02:49:58;;;;;;;40.13;29.97;;;;;;;16.16;100.00;96051.69;6167117;23;20013;-89
2023/05/23 02:52:24;;;;;;;42.70;30.77;;;;;;;16.26;100.00;96055.63;6165437;23;19996;-89
2023/05/23 02:54:54;;;;;;;41.37;31.53;;;;;;;16.25;100.00;96050.50;6165361;23;20011;-90
2023/05/23 02:57:20;;;;;;;44.17;32.63;;;;;;;16.18;100.00;96045.19;6163531;23;20063;-89
2023/05/23 02:59:45;;;;;;;43.50;31.97;;;;;;;16.13;100.00;96052.94;6190271;23;20013;-89
2023/05/23 03:02:11;;;;;;;45.93;33.83;;;;;;;16.27;100.00;96051.16;6189981;23;20008;-88
2023/05/23 03:04:37;;;;;;;41.57;32.93;;;;;;;16.21;100.00;96055.41;6166659;23;20058;-89
2023/05/23 03:07:02;;;;;;;43.50;33.43;;;;;;;16.31;100.00;96049.72;6166031;23;20000;-89
2023/05/23 03:09:28;;;;;;;46.70;33.43;;;;;;;16.33;100.00;96046.84;6165363;23;20008;-89
2023/05/23 03:11:54;;;;;;;48.17;36.63;;;;;;;16.33;100.00;96046.84;6164304;23;20001;-88
2023/05/23 03:14:21;;;;;;;48.37;36.20;;;;;;;16.24;100.00;96054.19;6189338;23;20443;-89
2023/05/23 03:16:48;;;;;;;48.20;34.67;;;;;;;16.44;100.00;96052.41;6189195;23;20361;-89
2023/05/23 03:19:13;;;;;;;52.60;36.83;;;;;;;16.31;100.00;96055.03;6189955;23;20020;-89
2023/05/23 03:21:39;;;;;;;49.67;37.37;;;;;;;16.36;100.00;96057.88;6166127;23;20003;-93
2023/05/23 03:24:06;;;;;;;56.53;38.47;;;;;;;16.48;100.00;96063.44;6193115;23;20007;-93
2023/05/23 03:26:31;;;;;;;56.30;38.27;;;;;;;16.40;100.00;96063.66;6169104;23;20034;-92
2023/05/23 03:28:57;;;;;;;54.87;39.80;;;;;;;16.46;100.00;96062.81;6193152;23;20004;-93
2023/05/23 03:31:23;;;;;;;56.07;38.03;;;;;;;16.44;100.00;96064.88;6169239;23;20032;-94
2023/05/23 03:33:49;;;;;;;52.10;37.37;;;;;;;16.44;100.00;96067.53;6169183;23;20001;-94
2023/05/23 03:36:15;;;;;;;57.50;40.33;;;;;;;16.43;100.00;96057.91;6169002;23;20139;-93
2023/05/23 03:38:41;;;;;;;54.77;39.63;;;;;;;16.30;100.00;96061.38;6167759;23;20016;-93
2023/05/23 03:41:07;;;;;;;50.83;37.97;;;;;;;16.39;100.00;96067.28;6168565;23;20178;-92
2023/05/23 03:43:33;;;;;;;56.80;38.67;;;;;;;16.47;100.00;96069.78;6169458;23;20004;-92
2023/05/23 03:45:59;;;;;;;54.60;40.77;;;;;;;16.40;100.00;96074.25;6195362;23;20421;-93
2023/05/23 03:48:25;;;;;;;53.87;39.80;;;;;;;16.39;100.00;96077.91;6170239;23;20015;-93
2023/05/23 03:50:51;;;;;;;54.90;39.43;;;;;;;16.27;100.00;96083.00;6170253;23;20008;-93
2023/05/23 03:53:17;;;;;;;53.40;39.27;;;;;;;16.20;100.00;96084.81;6170014;23;20008;-93
2023/05/23 03:55:43;;;;;;;57.47;41.40;;;;;;;16.28;100.00;96087.28;6182286;23;20001;-93
2023/05/23 03:58:10;;;;;;;55.93;39.77;;;;;;;16.44;100.00;96088.75;6190457;22;19992;-92
2023/05/23 04:00:37;;;;;;;60.33;41.67;;;;;;;16.37;100.00;96085.28;6183018;23;20024;-93
2023/05/23 04:03:07;;;;;;;54.97;39.90;;;;;;;16.28;100.00;96087.28;6169498;23;20063;-93
2023/05/23 04:05:33;;;;;;;59.43;40.83;;;;;;;16.33;100.00;96084.00;6169856;23;20007;-93
2023/05/23 04:08:00;;;;;;;58.57;40.30;;;;;;;16.34;100.00;96077.72;6169563;23;20000;-94
2023/05/23 04:10:26;;;;;;;56.63;40.90;;;;;;;16.27;100.00;96086.44;6169175;23;20000;-94
2023/05/23 04:12:52;;;;;;;57.13;41.43;;;;;;;16.26;100.00;96079.53;6169599;23;20032;-93
2023/05/23 04:15:20;;;;;;;57.70;41.53;;;;;;;16.34;100.00;96083.81;6170773;23;20419;-93
2023/05/23 04:18:08;;;;;;;53.57;39.33;;;;;;;16.54;100.00;96089.19;6187361;23;20011;-93
2023/05/23 04:20:35;;;;;;;54.33;40.23;;;;;;;16.60;100.00;96079.59;6195689;23;20016;-93
2023/05/23 04:23:01;;;;;;;60.53;42.90;;;;;;;16.40;100.00;96083.03;6171008;23;20005;-94
2023/05/23 04:25:28;;;;;;;60.47;43.20;;;;;;;16.46;100.00;96087.56;6171741;23;20032;-93
2023/05/23 04:28:05;;;;;;;60.17;41.87;;;;;;;16.56;100.00;96081.84;6173835;23;20059;-92
2023/05/23 04:30:32;;;;;;;63.00;44.20;;;;;;;16.39;100.00;96084.03;6170142;23;20437;-94
2023/05/23 04:32:58;;;;;;;60.80;43.30;;;;;;;16.44;100.00;96086.09;6170409;23;20019;-94
2023/05/23 04:35:29;;;;;;;57.83;40.10;;;;;;;16.42;100.00;96088.94;6193930;23;20004;-93
2023/05/23 04:37:55;;;;;;;58.93;39.67;;;;;;;16.41;100.00;96092.63;6171580;23;20078;-93
2023/05/23 04:40:23;;;;;;;58.40;40.80;;;;;;;16.42;100.00;96090.78;6194920;23;20032;-92
2023/05/23 04:43:09;;;;;;;64.33;41.90;;;;;;;16.35;100.00;96087.28;6173395;23;20007;-93
2023/05/23 04:45:48;;;;;;;69.20;43.07;;;;;;;16.59;100.00;96094.72;6170416;23;20340;-89
2023/05/23 04:48:35;;;;;;;58.90;40.00;;;;;;;16.69;100.00;96089.84;6195990;23;20011;-91
2023/05/23 04:51:04;;;;;;;68.03;42.90;;;;;;;16.73;100.00;96101.72;6168174;23;20444;-90
2023/05/23 04:53:30;;;;;;;69.27;45.50;;;;;;;16.50;100.00;96102.06;6167716;23;20011;-91
2023/05/23 04:55:57;;;;;;;65.70;45.73;;;;;;;16.50;100.00;96103.91;6169696;23;20459;-91
2023/05/23 04:58:23;;;;;;;74.53;45.77;;;;;;;16.55;100.00;96098.78;6168586;23;20004;-91
2023/05/23 05:00:53;;;;;;;67.77;46.20;;;;;;;16.84;100.00;96100.34;6167147;23;20011;-92
2023/05/23 05:03:18;;;;;;;62.13;43.13;;;;;;;17.06;100.00;96097.50;6166920;23;20008;-92
2023/05/23 05:05:45;;;;;;;70.20;45.63;;;;;;;17.01;100.00;96106.06;6167000;23;20024;-90
2023/05/23 05:08:13;;;;;;;64.70;45.37;;;;;;;17.04;100.00;96100.38;6169342;23;20009;-91
2023/05/23 05:10:40;;;;;;;59.80;44.17;;;;;;;17.10;100.00;96096.91;6168856;23;20001;-92
2023/05/23 05:13:06;;;;;;;60.50;42.50;;;;;;;16.96;100.00;96100.53;6167785;23;20087;-91
2023/05/23 05:15:41;;;;;;;60.23;43.27;;;;;;;17.28;100.00;96109.56;6170485;23;20027;-91
2023/05/23 05:18:07;;;;;;;55.70;39.93;;;;;;;17.33;100.00;96106.28;6168593;23;20047;-91
2023/05/23 05:20:33;;;;;;;56.72;40.80;;;;;;;17.60;100.00;96096.47;6168057;23;20008;-91
2023/05/23 05:23:00;;;;;;;55.00;39.60;;;;;;;17.66;100.00;96093.78;6168310;23;20019;-91
2023/05/23 05:25:30;;;;;;;59.10;40.33;;;;;;;17.57;100.00;96097.72;6166183;23;20020;-92
2023/05/23 05:28:04;;;;;;;54.25;40.55;;;;;;;17.40;100.00;96102.63;6166049;23;20021;-91
2023/05/23 05:30:34;;;;;;;54.20;40.30;;;;;;;17.54;100.00;96106.09;6166346;23;20004;-91
2023/05/23 05:33:04;;;;;;;49.63;38.17;;;;;;;17.51;100.00;96106.50;6165547;23;20009;-91
2023/05/23 05:35:31;;;;;;;48.85;36.95;;;;;;;17.41;100.00;96101.59;6190699;23;20020;-92
2023/05/23 05:37:58;;;;;;;49.97;36.03;;;;;;;17.48;100.00;96112.22;6169401;23;20004;-91
2023/05/23 05:40:23;;;;;;;44.97;34.22;;;;;;;17.58;100.00;96109.16;6167017;23;20011;-91
2023/05/23 05:42:50;;;;;;;46.97;34.63;;;;;;;17.50;100.00;96106.69;6167799;23;20004;-92
2023/05/23 05:45:16;;;;;;;44.33;34.13;;;;;;;17.29;100.00;96107.72;6167941;23;20016;-92
2023/05/23 05:47:44;;;;;;;44.90;34.95;;;;;;;17.34;100.00;96113.25;6168295;23;20028;-91
2023/05/23 05:50:10;;;;;;;46.75;34.70;;;;;;;17.40;100.00;96118.56;6167911;23;20035;-91
2023/05/23 05:52:40;;;;;;;45.30;34.17;;;;;;;17.16;100.00;96119.16;6195627;23;20095;-91
2023/05/23 05:55:07;;;;;;;42.75;35.08;;;;;;;17.33;100.00;96125.72;6169636;23;20001;-92
2023/05/23 05:57:37;;;;;;;43.70;34.13;;;;;;;17.51;100.00;96125.13;6175955;23;20012;-93
2023/05/23 06:00:13;;;;;;;41.08;32.10;;;;;;;17.39;100.00;96116.09;6188833;22;20056;-92
2023/05/23 06:02:47;;;;;;;41.63;32.22;;;;;;;17.91;100.00;96117.13;6195680;23;20008;-92
2023/05/23 06:05:17;;;;;;;40.20;31.33;;;;;;;18.64;100.00;96100.03;6168650;23;20028;-93
2023/05/23 06:07:48;;;;;;;38.88;31.08;;;;;;;18.94;100.00;96098.47;6168138;23;20004;-92
2023/05/23 06:10:15;;;;;;;37.72;29.95;;;;;;;18.86;100.00;96104.06;6167977;23;20066;-93
2023/05/23 06:12:41;;;;;;;37.65;29.30;;;;;;;19.29;100.00;96111.38;6193890;23;20004;-92
2023/05/23 06:15:08;;;;;;;35.97;28.25;;;;;;;19.25;100.00;96107.50;6168956;23;20496;-92
2023/05/23 06:17:35;;;;;;;36.75;28.02;;;;;;;19.05;100.00;96105.78;6168886;23;20439;-93
2023/05/23 06:20:00;;;;;;;31.95;27.50;;;;;;;19.07;100.00;96106.38;6192778;23;20004;-92
2023/05/23 06:22:26;;;;;;;32.63;25.98;;;;;;;18.93;100.00;96104.84;6168074;23;20493;-92
2023/05/23 06:24:52;;;;;;;33.28;27.95;;;;;;;18.97;100.00;96100.69;6182116;22;19989;-92
2023/05/23 06:27:18;;;;;;;32.60;25.38;;;;;;;19.14;100.00;96106.31;6175730;23;20087;-92
2023/05/23 06:29:45;;;;;;;29.05;25.35;;;;;;;19.29;100.00;96106.84;6192329;23;20012;-93
2023/05/23 06:32:11;;;;;;;32.83;24.75;;;;;;;19.27;100.00;96105.41;6167769;23;20001;-93
2023/05/23 06:34:36;;;;;;;29.85;24.73;;;;;;;19.38;100.00;96111.88;6167638;23;20009;-93
2023/05/23 06:37:02;;;;;;;30.88;25.08;;;;;;;18.78;100.00;96107.00;6168208;23;20000;-93
2023/05/23 06:39:28;;;;;;;29.10;24.80;;;;;;;19.29;100.00;96106.84;6167119;23;20020;-92
2023/05/23 06:41:54;;;;;;;26.05;23.30;;;;;;;19.15;100.00;96107.97;6167777;23;20008;-93
2023/05/23 06:44:19;;;;;;;27.73;23.08;;;;;;;19.24;100.00;96112.00;6166089;23;20011;-93
2023/05/23 06:46:49;;;;;;;27.55;22.55;;;;;;;19.15;100.00;96109.81;6167768;23;20020;-92
2023/05/23 06:49:15;;;;;;;25.90;22.70;;;;;;;19.22;100.00;96110.59;6166743;23;20008;-93
2023/05/23 06:51:43;;;;;;;28.00;23.10;;;;;;;19.67;100.00;96116.59;6167409;23;20001;-92
2023/05/23 06:54:10;;;;;;;27.83;22.20;;;;;;;19.25;100.00;96120.84;6191861;23;20091;-93
2023/05/23 06:56:36;;;;;;;26.40;23.15;;;;;;;20.56;100.00;96105.63;6166952;23;20005;-92
2023/05/23 06:59:03;;;;;;;27.15;21.13;;;;;;;21.23;100.00;96100.97;6167673;23;20004;-94
2023/05/23 07:01:29;;;;;;;26.17;20.52;;;;;;;21.81;100.00;96113.63;6205042;23;20035;-93
2023/05/23 07:03:55;;;;;;;24.33;21.00;;;;;;;21.22;100.00;96114.56;6203973;23;20007;-92
2023/05/23 07:06:22;;;;;;;24.58;21.17;;;;;;;20.54;100.00;96124.53;6177088;23;20031;-92
2023/05/23 07:08:47;;;;;;;22.92;18.77;;;;;;;20.87;100.00;96121.44;6167702;23;20005;-93
2023/05/23 07:11:14;;;;;;;23.70;20.23;;;;;;;20.25;100.00;96129.59;6166211;23;20008;-92
2023/05/23 07:13:43;;;;;;;24.88;19.75;;;;;;;20.52;100.00;96129.28;6166934;23;20389;-93
2023/05/23 07:16:14;;;;;;;24.27;19.15;;;;;;;20.51;100.00;96124.19;6167523;23;20298;-91
2023/05/23 07:18:51;;;;;;;20.83;18.02;;;;;;;20.17;100.00;96129.88;6170073;23;20005;-92
2023/05/23 07:21:17;;;;;;;23.27;20.00;;;;;;;19.93;100.00;96131.56;6168187;23;20053;-93
2023/05/23 07:23:45;;;;;;;24.90;20.40;;;;;;;20.02;100.00;96134.75;6192992;23;20009;-93
2023/05/23 07:26:10;;;;;;;23.58;18.38;;;;;;;20.08;100.00;96131.19;6193076;23;20004;-92
2023/05/23 07:28:43;;;;;;;22.35;18.88;;;;;;;19.81;100.00;96140.50;6170740;23;20012;-93
2023/05/23 07:31:12;;;;;;;22.25;18.70;;;;;;;20.27;100.00;96139.22;6168372;23;20008;-92
2023/05/23 07:33:38;;;;;;;21.92;18.85;;;;;;;20.21;100.00;96143.59;6168338;23;20092;-92
2023/05/23 07:36:04;;;;;;;23.90;20.90;;;;;;;20.28;100.00;96140.84;6169515;23;20011;-94
2023/05/23 07:38:30;;;;;;;23.48;18.85;;;;;;;20.37;100.00;96145.66;6167973;23;20076;-92
2023/05/23 07:40:56;;;;;;;22.67;19.33;;;;;;;20.16;100.00;96143.44;6169409;23;20009;-94
2023/05/23 07:43:22;;;;;;;23.92;20.95;;;;;;;19.87;100.00;96148.44;6168577;23;20005;-93
2023/05/23 07:45:47;;;;;;;27.15;20.08;;;;;;;19.79;100.00;96151.41;6193487;23;20008;-93
2023/05/23 07:48:13;;;;;;;23.80;20.52;;;;;;;19.44;100.00;96153.69;6170157;23;20001;-92
2023/05/23 07:50:39;;;;;;;24.52;20.83;;;;;;;19.92;100.00;96156.63;6167432;23;20051;-93
2023/05/23 07:53:06;;;;;;;25.42;20.42;;;;;;;20.25;100.00;96153.63;6167761;23;20015;-93
2023/05/23 07:55:33;;;;;;;24.63;20.20;;;;;;;20.71;100.00;96157.63;6170787;23;20488;-93
2023/05/23 07:57:58;;;;;;;23.08;19.42;;;;;;;21.00;100.00;96146.38;6180611;23;20008;-94
2023/05/23 08:00:26;;;;;;;22.90;19.23;;;;;;;21.36;100.00;96140.94;6192508;22;20011;-94
2023/05/23 08:02:57;;;;;;;23.27;19.70;;;;;;;21.09;100.00;96145.81;6174068;23;20035;-93
2023/05/23 08:05:29;;;;;;;15.87;13.77;;;;;;;21.46;100.00;96147.56;6193523;23;20009;-93
2023/05/23 08:07:56;;;;;;;23.35;19.75;;;;;;;21.05;100.00;96151.84;6169743;23;20055;-93
2023/05/23 08:10:24;;;;;;;23.52;19.13;;;;;;;22.24;100.00;96147.28;6167815;23;20001;-91
2023/05/23 08:12:53;;;;;;;23.80;18.90;;;;;;;23.42;100.00;96145.03;6169156;23;20004;-93
2023/05/23 08:15:21;;;;;;;22.23;18.90;;;;;;;22.52;100.00;96151.88;6174865;23;20010;-93
2023/05/23 08:17:55;;;;;;;21.60;19.30;;;;;;;22.40;100.00;96147.59;6194800;23;20007;-93
2023/05/23 08:20:29;;;;;;;21.85;18.83;;;;;;;22.07;100.00;96149.81;6194320;23;19997;-93
2023/05/23 08:23:03;;;;;;;21.10;18.63;;;;;;;21.73;100.00;96143.44;6192940;23;20096;-93
2023/05/23 08:25:32;;;;;;;19.75;17.48;;;;;;;21.75;100.00;96149.34;6170972;23;20023;-93
2023/05/23 08:27:58;;;;;;;24.48;18.67;;;;;;;22.03;100.00;96147.81;6170281;23;20039;-93
2023/05/23 08:30:38;;;;;;;21.58;18.23;;;;;;;23.38;100.00;96143.06;6171518;23;20092;-94
2023/05/23 08:33:05;;;;;;;20.60;17.00;;;;;;;24.64;100.00;96142.53;6168934;23;20413;-93
2023/05/23 08:35:35;;;;;;;22.15;19.02;;;;;;;24.86;100.00;96147.94;6169103;23;20364;-93
2023/05/23 08:38:06;;;;;;;21.48;17.40;;;;;;;24.54;100.00;96143.22;6170452;23;20005;-93
2023/05/23 08:40:35;;;;;;;20.83;17.45;;;;;;;25.12;100.00;96144.47;6171908;23;20024;-93
2023/05/23 08:43:09;;;;;;;22.33;17.65;;;;;;;23.50;100.00;96160.72;6171307;23;20007;-94
2023/05/23 08:45:36;;;;;;;23.17;19.67;;;;;;;22.97;100.00;96161.94;6170304;23;20000;-94
2023/05/23 08:48:08;;;;;;;20.20;17.67;;;;;;;22.63;100.00;96166.28;6169865;23;20019;-93
2023/05/23 08:50:38;;;;;;;23.58;18.15;;;;;;;22.17;100.00;96165.34;6169545;23;20015;-93
2023/05/23 08:53:07;;;;;;;20.88;17.02;;;;;;;21.96;100.00;96174.72;6168732;23;20428;-94
2023/05/23 08:55:36;;;;;;;19.67;17.52;;;;;;;21.43;100.00;96175.59;6168725;23;20010;-93
2023/05/23 08:58:03;;;;;;;18.13;15.93;;;;;;;22.02;100.00;96172.97;6169131;23;20008;-94
2023/05/23 09:00:38;;;;;;;19.33;17.27;;;;;;;21.46;100.00;96174.31;6171256;23;20008;-93
2023/05/23 09:03:05;;;;;;;21.35;18.67;;;;;;;21.18;100.00;96184.53;6168711;23;20040;-93
2023/05/23 09:05:59;;;;;;;20.58;18.48;;;;;;;21.44;100.00;96182.56;6176870;23;20001;-94
2023/05/23 09:08:25;;;;;;;22.45;19.33;;;;;;;21.00;100.00;96186.47;6168775;23;20004;-94
2023/05/23 09:10:55;;;;;;;21.27;18.27;;;;;;;21.22;100.00;96179.56;6169512;23;20008;-93
2023/05/23 09:13:21;;;;;;;21.25;17.55;;;;;;;21.18;100.00;96183.75;6167510;23;20433;-94
2023/05/23 09:15:58;;;;;;;21.27;17.58;;;;;;;21.06;100.00;96190.88;6168807;23;20005;-94
2023/05/23 09:18:33;;;;;;;20.92;17.02;;;;;;;21.59;100.00;96195.50;6193307;23;20011;-94
2023/05/23 09:21:00;;;;;;;19.80;17.73;;;;;;;21.07;100.00;96188.00;6168973;23;20000;-93
2023/05/23 09:23:29;;;;;;;19.35;17.10;;;;;;;20.99;100.00;96190.16;6167609;23;20372;-94
2023/05/23 09:25:55;;;;;;;20.45;16.63;;;;;;;21.60;100.00;96194.50;6167684;23;20032;-93
2023/05/23 09:28:22;;;;;;;19.33;16.88;;;;;;;21.69;100.00;96184.25;6168138;23;20373;-94
2023/05/23 09:30:57;;;;;;;19.85;17.33;;;;;;;21.65;100.00;96191.91;6167663;23;20000;-93
2023/05/23 09:33:28;;;;;;;19.35;17.27;;;;;;;22.19;100.00;96181.97;6168512;23;20012;-95
2023/05/23 09:35:54;;;;;;;20.55;17.85;;;;;;;23.14;100.00;96180.75;6168581;23;20000;-92
2023/05/23 09:38:21;;;;;;;19.23;15.50;;;;;;;22.91;100.00;96183.50;6167465;23;20007;-93
2023/05/23 09:40:47;;;;;;;16.98;15.00;;;;;;;23.49;100.00;96177.06;6192362;23;20091;-93
2023/05/23 09:43:16;;;;;;;18.48;16.52;;;;;;;23.03;100.00;96184.28;6167162;23;20005;-93
2023/05/23 09:45:41;;;;;;;17.90;13.23;;;;;;;22.92;100.00;96187.78;6168066;23;20005;-94
2023/05/23 09:48:11;;;;;;;14.68;13.02;;;;;;;23.61;100.00;96187.72;6167741;23;20015;-94
2023/05/23 09:50:37;;;;;;;16.42;12.70;;;;;;;23.32;100.00;96192.34;6167867;23;20428;-94
2023/05/23 09:53:02;;;;;;;13.30;11.88;;;;;;;23.17;100.00;96193.69;6168159;23;20039;-93
2023/05/23 09:55:29;;;;;;;13.65;12.15;;;;;;;23.20;100.00;96203.09;6168087;23;20007;-93
2023/05/23 09:57:57;;;;;;;14.23;11.75;;;;;;;23.32;100.00;96197.72;6207326;23;20012;-94
2023/05/23 10:00:24;;;;;;;15.10;12.27;;;;;;;22.73;100.00;96203.22;6190243;22;19988;-95
2023/05/23 10:03:22;;;;;;;15.30;12.45;;;;;;;23.47;100.00;96200.66;6176509;23;20008;-93
2023/05/23 10:06:00;;;;;;;14.25;11.93;;;;;;;23.40;100.00;96198.09;6161575;23;20108;-93
2023/05/23 10:08:31;;;;;;;13.52;11.30;;;;;;;24.38;100.00;96195.13;6167211;23;20004;-94
2023/05/23 10:10:57;;;;;;;14.25;11.45;;;;;;;23.98;100.00;96198.88;6192332;23;20436;-94
2023/05/23 10:17:17;;;;;;;13.00;10.25;;;;;;;23.87;100.00;96202.44;6218867;23;20078;-94
2023/05/23 10:19:49;;;;;;;13.18;11.32;;;;;;;24.01;100.00;96195.69;6167760;23;20269;-93
2023/05/23 10:22:15;;;;;;;18.03;12.27;;;;;;;24.58;100.00;96200.00;6166633;23;20086;-93
2023/05/23 10:24:45;;;;;;;13.43;11.48;;;;;;;24.48;100.00;96191.81;6166797;23;20408;-93
2023/05/23 10:27:11;;;;;;;14.68;11.40;;;;;;;24.69;100.00;96199.09;6166993;23;20004;-93
2023/05/23 10:33:00;;;;;;;11.93;10.32;;;;;;;24.37;100.00;96197.00;6224827;23;19997;-94
2023/05/23 10:35:47;;;;;;;14.68;12.52;;;;;;;23.47;100.00;96196.13;6173338;23;20012;-93
2023/05/23 10:38:35;;;;;;;14.13;11.93;;;;;;;23.57;100.00;96200.00;6199272;23;20008;-94
2023/05/23 10:41:30;;;;;;;13.30;10.48;;;;;;;24.12;100.00;96197.47;6197989;23;20491;-93
2023/05/23 10:44:32;;;;;;;13.38;10.85;;;;;;;24.84;100.00;96198.47;6185550;22;20003;-94
2023/05/23 10:47:00;;;;;;;14.38;11.52;;;;;;;23.78;100.00;96204.72;6174750;23;20012;-94
2023/05/23 10:49:40;;;;;;;14.40;10.68;;;;;;;24.28;100.00;96200.34;6168787;23;20009;-93
2023/05/23 10:52:07;;;;;;;12.35;10.32;;;;;;;24.39;100.00;96210.22;6169482;23;20004;-93
2023/05/23 10:54:41;;;;;;;12.15;10.65;;;;;;;24.96;100.00;96201.03;6171066;23;20004;-94
2023/05/23 10:57:10;;;;;;;14.95;10.88;;;;;;;24.64;100.00;96199.81;6169559;23;20413;-94
2023/05/23 10:59:38;;;;;;;12.30;10.13;;;;;;;24.99;100.00;96200.53;6169822;23;20008;-95
2023/05/23 11:02:14;;;;;;;11.65;8.45;;;;;;;25.05;100.00;96199.50;6169054;23;20015;-94
2023/05/23 11:04:41;;;;;;;15.38;9.95;;;;;;;25.07;100.00;96203.56;6168603;23;20012;-93
2023/05/23 11:11:01;;;;;;;13.15;10.60;;;;;;;25.36;100.00;96200.69;6220390;23;20055;-94
2023/05/23 11:13:52;;;;;;;13.35;10.57;;;;;;;25.44;100.00;96208.31;6167952;23;20095;-94
2023/05/23 11:16:31;;;;;;;13.75;11.10;;;;;;;24.65;100.00;96201.47;6169816;23;20009;-94
2023/05/23 11:19:15;;;;;;;12.50;10.45;;;;;;;25.02;100.00;96210.81;6169231;23;20004;-94
2023/05/23 11:21:43;;;;;;;14.35;11.27;;;;;;;23.64;100.00;96214.94;6169588;23;20027;-95
2023/05/23 11:24:16;;;;;;;13.90;10.40;;;;;;;25.17;100.00;96216.38;6169419;23;20032;-94
2023/05/23 11:27:02;;;;;;;11.75;10.18;;;;;;;24.91;100.00;96220.59;6193978;23;20015;-95
2023/05/23 11:29:29;;;;;;;12.73;11.02;;;;;;;24.14;100.00;96222.19;6170181;23;20376;-94